KBFD

Bradford Regional Airport

Bradford, Pennsylvania, USA
METAR KBFD 230753Z AUTO 14010KT 3SM BR OVC003 01/01 A3042 RMK AO2 SLP318 T00110006
Observed Flight Rules
Feb-23 @ 07:53 UTC (28 minutes ago) Instrument Flight Rules
Wind Visibility Clouds Conditions
140° at 10 knots 3 miles
  • Overcast at 300' AGL
  • Mist
Temperatures Readings
Current 1°C / 34°F
Dewpoint 1°C / 34°F
Humidity 100%
Altimeter 30.42" Hg
Pressure 1031.8 hPa
Elevation 647
METAR KBFD 230753Z AUTO 14010KT 3SM BR OVC003 01/01 A3042 RMK AO2 SLP318 T00110006
Observed Flight Rules
Feb-23 @ 07:53 UTC
(28 minutes ago)
LIFR
Wind Visibility
140° at 10 knots 3 miles
Clouds
  • Overcast at 300' AGL
Conditions
  • Mist
Temperature Dewpoint
1°C / 34°F 1°C / 34°F
Humidity Altimeter Pressure
100% 30.42" Hg 1031.8 hPa